Main page
METAR-TAF:

METAR-TAF

Airports :

Jabalpur Airport

Jabalpur, India

latitude: 23-10-54N, longitude: 80-03-31E, elevation: 495 m

Current weather observation

The report was made 9 hours and 21 minutes ago, at 15:00 UTC
Wind 4 kt from the East
Temperature 19°C
Humidity 60%
Pressure 1015 hPa
Visibility: 3000 m
haze

METAR: VAJB 111500Z 08004KT 3000 HZ NSC 19/11 Q1015

Time: 05:51 (00:21 UTC)

Forecast

The report was made 1 hour and 21 minutes ago, at 23:00 UTC
Forecast valid from 12 at 00 UTC to 12 at 09 UTC
Wind 5 kt from the Northeast
Visibility: 1500 m
Scattered clouds at a height of 2500 ft
mist
Becoming
between 12 and 0/ UTC
Visibility: 3000 m
Scattered clouds at a height of 2000 ft
Broken clouds at a height of 10000 ft
haze

TAF: VAJB 112300Z 1200/1209 05005KT 1500 BR SCT025 BECMG 120/1206 3000 HZ SCT020 BKN100

Weather observations and forecasts of more than 4000 airports (METAR and TAF reports).

The available stations are represented by yellow and red dots on the map.

Hover mouse over dot to see the name of the station.

Then click to see weather observations and forecasts.

To change the map : click on the green buttons with a black cross to zoom in, on the green button with a dash to zoom out, or on the green arrows for adjacent maps.


METAR-TAF: